createdAt,value
2023-05-21T00:03:54.570Z,13.97
2023-05-21T00:07:57.779Z,13.96
2023-05-21T00:12:01.116Z,13.97
2023-05-21T00:16:04.558Z,13.98
2023-05-21T00:20:09.111Z,13.95
2023-05-21T00:24:12.373Z,13.96
2023-05-21T00:28:15.701Z,13.94
2023-05-21T00:32:20.745Z,13.94
2023-05-21T00:36:25.428Z,13.91
2023-05-21T00:40:31.204Z,13.89
2023-05-21T00:44:35.467Z,13.82
2023-05-21T00:48:40.013Z,13.73
2023-05-21T00:52:45.702Z,13.61
2023-05-21T00:56:50.054Z,13.50
2023-05-21T01:00:56.021Z,13.49
2023-05-21T01:05:00.481Z,13.49
2023-05-21T01:09:06.523Z,13.47
2023-05-21T01:13:09.867Z,13.47
2023-05-21T01:17:13.944Z,13.43
2023-05-21T01:21:18.607Z,13.36
2023-05-21T01:25:23.405Z,13.27
2023-05-21T01:29:26.664Z,13.21
2023-05-21T01:33:45.743Z,13.16
2023-05-21T01:37:55.880Z,13.03
2023-05-21T01:42:03.710Z,12.93
2023-05-21T01:46:11.011Z,12.85
2023-05-21T01:50:16.088Z,12.76
2023-05-21T01:54:19.407Z,12.71
2023-05-21T01:58:23.493Z,12.45
2023-05-21T02:02:26.846Z,12.26
2023-05-21T02:06:31.866Z,12.20
2023-05-21T02:10:36.109Z,12.18
2023-05-21T02:14:39.392Z,12.19
2023-05-21T02:18:46.592Z,12.24
2023-05-21T02:22:50.872Z,12.23
2023-05-21T02:26:54.192Z,12.26
2023-05-21T02:30:57.474Z,12.30
2023-05-21T02:35:01.538Z,12.30
2023-05-21T02:39:04.723Z,12.33
2023-05-21T02:43:07.813Z,12.31
2023-05-21T02:47:13.039Z,12.20
2023-05-21T02:51:16.182Z,12.14
2023-05-21T02:55:19.211Z,12.14
2023-05-21T02:59:22.350Z,12.10
2023-05-21T03:03:25.745Z,12.12
2023-05-21T03:07:29.039Z,12.07
2023-05-21T03:11:32.420Z,11.96
2023-05-21T03:15:36.130Z,11.86
2023-05-21T03:19:42.097Z,11.78
2023-05-21T03:23:45.677Z,11.70
2023-05-21T03:27:49.116Z,11.71
2023-05-21T03:31:56.728Z,11.77
2023-05-21T03:36:00.438Z,11.84
2023-05-21T03:40:04.746Z,11.92
2023-05-21T03:44:09.673Z,11.97
2023-05-21T03:48:12.860Z,12.02
2023-05-21T03:52:16.100Z,12.08
2023-05-21T03:56:19.487Z,12.22
2023-05-21T04:00:22.741Z,12.30
2023-05-21T04:04:26.521Z,12.42
2023-05-21T04:08:29.905Z,12.49
2023-05-21T04:12:33.398Z,12.77
2023-05-21T04:16:38.895Z,13.35
2023-05-21T04:20:42.242Z,14.28
2023-05-21T04:24:46.610Z,15.44
2023-05-21T04:28:50.599Z,16.46
2023-05-21T04:32:55.046Z,17.24
2023-05-21T04:36:58.678Z,18.02
2023-05-21T04:41:03.980Z,18.93
2023-05-21T04:45:07.616Z,19.84
2023-05-21T04:49:10.859Z,20.45
2023-05-21T04:53:14.127Z,20.92
2023-05-21T04:57:18.567Z,21.22
2023-05-21T05:01:27.065Z,21.73
2023-05-21T05:05:30.660Z,22.05
2023-05-21T05:09:34.705Z,22.27
2023-05-21T05:13:37.932Z,22.54
2023-05-21T05:17:41.374Z,22.89
2023-05-21T05:21:44.556Z,23.10
2023-05-21T05:25:47.890Z,23.24
2023-05-21T05:29:51.139Z,23.43
2023-05-21T05:33:54.492Z,23.48
2023-05-21T05:37:57.773Z,23.48
2023-05-21T05:42:01.710Z,23.37
2023-05-21T05:46:05.151Z,23.18
2023-05-21T05:50:08.784Z,22.84
2023-05-21T05:54:11.949Z,22.67
2023-05-21T05:58:15.285Z,22.54
2023-05-21T06:02:18.664Z,22.39
2023-05-21T06:06:22.112Z,22.38
2023-05-21T06:10:25.722Z,22.44
2023-05-21T06:14:28.974Z,22.54
2023-05-21T06:18:32.434Z,22.61
2023-05-21T06:22:37.056Z,22.68
2023-05-21T06:26:40.367Z,22.74
2023-05-21T06:30:43.510Z,22.84
2023-05-21T06:34:47.046Z,22.93
2023-05-21T06:38:50.328Z,23.04
2023-05-21T06:42:53.726Z,22.95
2023-05-21T06:46:56.983Z,22.92
2023-05-21T06:51:00.447Z,22.93
2023-05-21T06:55:04.295Z,22.84
2023-05-21T06:59:07.663Z,22.80
2023-05-21T07:03:11.256Z,22.73
2023-05-21T07:07:14.638Z,22.76
2023-05-21T07:11:17.818Z,22.89
2023-05-21T07:15:21.119Z,23.00
2023-05-21T07:19:24.458Z,23.07
2023-05-21T07:23:27.655Z,23.06
2023-05-21T07:27:30.904Z,23.02
2023-05-21T07:31:34.453Z,23.16
2023-05-21T07:35:37.933Z,23.30
2023-05-21T07:39:41.407Z,23.45
2023-05-21T07:43:44.748Z,23.65
2023-05-21T07:47:48.037Z,23.66
2023-05-21T07:51:51.335Z,23.66
2023-05-21T07:55:54.712Z,23.70
2023-05-21T07:59:58.677Z,23.76
2023-05-21T08:04:05.902Z,23.93
2023-05-21T08:08:09.458Z,23.99
2023-05-21T08:12:15.907Z,23.82
2023-05-21T08:16:19.384Z,23.88
2023-05-21T08:20:22.593Z,24.08
2023-05-21T08:24:26.534Z,24.17
2023-05-21T08:28:30.901Z,24.24
2023-05-21T08:32:52.287Z,24.37
2023-05-21T08:37:17.118Z,24.61
2023-05-21T08:41:23.814Z,24.75
2023-05-21T08:45:38.283Z,24.73
2023-05-21T08:49:45.287Z,24.66
2023-05-21T08:53:53.076Z,24.62
2023-05-21T08:58:04.108Z,24.79
2023-05-21T09:02:14.025Z,24.92
2023-05-21T09:06:24.717Z,24.90
2023-05-21T09:15:01.859Z,24.82
2023-05-21T09:19:13.044Z,24.76
2023-05-21T09:23:18.481Z,24.79
2023-05-21T09:27:22.794Z,24.91
2023-05-21T09:31:27.422Z,25.00
2023-05-21T09:35:31.576Z,25.22
2023-05-21T09:39:35.996Z,25.40
2023-05-21T09:43:43.160Z,25.55
2023-05-21T09:47:48.499Z,25.66
2023-05-21T09:56:32.328Z,25.72
2023-05-21T10:00:35.664Z,25.84
2023-05-21T10:04:39.370Z,25.77
2023-05-21T10:08:48.351Z,25.92
2023-05-21T10:13:23.954Z,26.02
2023-05-21T10:17:28.436Z,26.11
2023-05-21T10:21:33.608Z,26.08
2023-05-21T10:25:36.354Z,26.13
2023-05-21T10:29:41.863Z,26.25
2023-05-21T10:33:58.612Z,26.28
2023-05-21T10:38:04.324Z,26.25
2023-05-21T10:42:34.259Z,26.24
2023-05-21T10:46:47.467Z,26.22
2023-05-21T10:50:56.105Z,26.21
2023-05-21T10:54:58.900Z,26.28
2023-05-21T10:59:51.824Z,26.45
2023-05-21T11:03:55.989Z,26.73
2023-05-21T11:08:02.520Z,26.88
2023-05-21T11:12:05.788Z,27.01
2023-05-21T11:16:16.765Z,26.97
2023-05-21T11:20:22.951Z,27.03
2023-05-21T11:24:28.315Z,27.03
2023-05-21T11:28:34.328Z,27.19
2023-05-21T11:33:14.169Z,27.29
2023-05-21T11:37:17.627Z,27.35
2023-05-21T11:41:22.281Z,27.40
2023-05-21T11:45:54.783Z,27.35
2023-05-21T11:50:00.816Z,27.30
2023-05-21T11:54:54.196Z,27.26
2023-05-21T11:58:56.952Z,27.28
2023-05-21T12:03:02.305Z,27.29
2023-05-21T12:07:11.013Z,27.17
2023-05-21T12:11:13.956Z,27.06
2023-05-21T12:15:18.972Z,27.02
2023-05-21T12:19:22.135Z,27.09
2023-05-21T12:23:27.179Z,27.26
2023-05-21T12:27:31.225Z,27.42
2023-05-21T12:31:48.003Z,27.49
2023-05-21T12:35:51.716Z,27.54
2023-05-21T12:39:57.965Z,27.55
2023-05-21T12:44:01.222Z,27.44
2023-05-21T12:48:04.299Z,27.38
2023-05-21T12:52:57.722Z,27.40
2023-05-21T12:57:28.321Z,27.55
2023-05-21T13:02:02.105Z,27.58
2023-05-21T13:06:09.261Z,27.60
2023-05-21T13:10:13.149Z,27.58
2023-05-21T13:15:15.230Z,27.61
2023-05-21T13:19:18.227Z,27.66
2023-05-21T13:23:21.250Z,27.74
2023-05-21T13:27:24.004Z,27.70
2023-05-21T13:31:27.134Z,27.73
2023-05-21T13:35:31.116Z,27.70
2023-05-21T13:39:58.921Z,27.65
2023-05-21T13:44:01.942Z,27.64
2023-05-21T13:48:05.104Z,27.71
2023-05-21T13:52:08.800Z,27.87
2023-05-21T13:56:11.653Z,27.97
2023-05-21T14:00:15.846Z,28.02
2023-05-21T14:04:19.885Z,28.11
2023-05-21T14:08:30.091Z,28.30
2023-05-21T14:12:33.437Z,28.28
2023-05-21T14:16:36.464Z,28.29
2023-05-21T14:20:39.517Z,28.27
2023-05-21T14:24:42.487Z,28.25
2023-05-21T14:28:46.377Z,28.06
2023-05-21T14:32:49.287Z,28.03
2023-05-21T14:36:52.045Z,28.00
2023-05-21T14:40:55.128Z,27.95
2023-05-21T14:49:01.502Z,27.96
2023-05-21T14:53:06.181Z,27.90
2023-05-21T14:57:18.035Z,27.91
2023-05-21T15:01:21.066Z,27.94
2023-05-21T15:05:24.915Z,28.01
2023-05-21T15:09:27.686Z,28.09
2023-05-21T15:13:30.538Z,28.15
2023-05-21T15:17:34.787Z,28.20
2023-05-21T15:21:37.892Z,28.22
2023-05-21T15:25:40.711Z,28.14
2023-05-21T15:29:45.672Z,28.07
2023-05-21T15:33:49.085Z,27.96
2023-05-21T15:37:52.048Z,27.89
2023-05-21T15:41:54.958Z,27.81
2023-05-21T15:51:05.028Z,27.58
2023-05-21T16:11:17.968Z,27.29
2023-05-21T16:36:53.661Z,27.02
2023-05-21T16:40:56.772Z,26.93
2023-05-21T16:44:59.963Z,26.79
2023-05-21T16:49:02.993Z,26.67
2023-05-21T16:53:07.678Z,26.52
2023-05-21T16:57:10.594Z,26.39
2023-05-21T17:01:14.786Z,26.30
2023-05-21T17:05:17.705Z,26.14
2023-05-21T17:09:22.838Z,25.94
2023-05-21T17:13:25.573Z,25.75
2023-05-21T17:17:28.454Z,25.53
2023-05-21T17:21:31.745Z,25.30
2023-05-21T17:25:40.230Z,24.99
2023-05-21T17:29:43.887Z,24.71
2023-05-21T17:33:47.117Z,24.45
2023-05-21T17:37:50.447Z,24.14
2023-05-21T17:41:53.650Z,23.84
2023-05-21T17:45:56.827Z,23.60
2023-05-21T17:50:00.192Z,23.42
2023-05-21T17:54:04.244Z,23.25
2023-05-21T17:58:07.627Z,23.06
2023-05-21T18:02:11.521Z,22.87
2023-05-21T18:06:14.911Z,22.72
2023-05-21T18:10:18.194Z,22.56
2023-05-21T18:14:21.436Z,22.35
2023-05-21T18:18:25.053Z,22.20
2023-05-21T18:22:28.201Z,22.08
2023-05-21T18:26:32.212Z,21.95
2023-05-21T18:30:35.839Z,21.81
2023-05-21T18:34:39.405Z,21.64
2023-05-21T18:38:42.650Z,21.50
2023-05-21T18:42:46.058Z,21.37
2023-05-21T18:46:49.356Z,21.21
2023-05-21T18:50:53.049Z,21.05
2023-05-21T18:54:56.281Z,20.92
2023-05-21T18:59:03.946Z,20.84
2023-05-21T19:03:07.465Z,20.76
2023-05-21T19:07:11.706Z,20.67
2023-05-21T19:11:18.934Z,20.58
2023-05-21T19:15:23.262Z,20.45
2023-05-21T19:19:26.898Z,20.36
2023-05-21T19:23:33.795Z,20.30
2023-05-21T19:27:45.212Z,20.25
2023-05-21T19:31:49.200Z,20.20
2023-05-21T19:35:53.012Z,20.13
2023-05-21T19:39:56.873Z,20.05
2023-05-21T19:44:00.695Z,19.99
2023-05-21T19:48:04.720Z,19.93
2023-05-21T19:52:23.416Z,19.83
2023-05-21T19:56:35.706Z,19.74
2023-05-21T20:00:40.394Z,19.66
2023-05-21T20:04:44.550Z,19.58
2023-05-21T20:08:52.006Z,19.48
2023-05-21T20:12:58.270Z,19.40
2023-05-21T20:17:02.195Z,19.35
2023-05-21T20:21:06.700Z,19.31
2023-05-21T20:25:10.769Z,19.25
2023-05-21T20:29:14.060Z,19.18
2023-05-21T20:33:17.355Z,19.11
2023-05-21T20:37:21.907Z,19.03
2023-05-21T20:41:25.409Z,18.95
2023-05-21T20:45:29.843Z,18.88
2023-05-21T20:49:35.836Z,18.79
2023-05-21T20:53:39.246Z,18.67
2023-05-21T20:57:42.469Z,18.58
2023-05-21T21:01:45.791Z,18.50
2023-05-21T21:05:49.307Z,18.48
2023-05-21T21:09:53.434Z,18.45
2023-05-21T21:13:56.832Z,18.41
2023-05-21T21:18:00.013Z,18.38
2023-05-21T21:22:03.450Z,18.34
2023-05-21T21:26:06.785Z,18.31
2023-05-21T21:30:10.440Z,18.26
2023-05-21T21:34:14.502Z,18.21
2023-05-21T21:38:17.812Z,18.13
2023-05-21T21:42:21.037Z,18.07
2023-05-21T21:46:25.734Z,17.96
2023-05-21T21:50:29.044Z,17.82
2023-05-21T21:54:32.198Z,17.68
2023-05-21T21:58:35.596Z,17.52
2023-05-21T22:02:40.364Z,17.40
2023-05-21T22:06:45.473Z,17.23
2023-05-21T22:10:48.781Z,17.05
2023-05-21T22:14:52.234Z,16.87
2023-05-21T22:18:55.722Z,16.71
2023-05-21T22:22:59.978Z,16.58
2023-05-21T22:27:03.636Z,16.44
2023-05-21T22:31:09.477Z,16.30
2023-05-21T22:35:12.785Z,16.21
2023-05-21T22:39:15.815Z,16.14
2023-05-21T22:43:19.094Z,16.06
2023-05-21T22:47:23.979Z,15.99
2023-05-21T22:51:29.010Z,15.89
2023-05-21T22:55:32.134Z,15.82
2023-05-21T22:59:35.322Z,15.79
2023-05-21T23:03:38.758Z,15.69
2023-05-21T23:07:43.018Z,15.60
2023-05-21T23:11:46.275Z,15.55
2023-05-21T23:15:50.828Z,15.53
2023-05-21T23:19:53.981Z,15.49
2023-05-21T23:23:57.242Z,15.44
2023-05-21T23:28:00.402Z,15.35
2023-05-21T23:32:05.405Z,15.29
2023-05-21T23:36:09.061Z,15.23
2023-05-21T23:59:03.285Z,14.89
